createdAt,value
2022-11-03T00:02:09.886Z,0.52
2022-11-03T00:04:39.198Z,0.70
2022-11-03T00:07:07.589Z,0.63
2022-11-03T00:09:41.165Z,0.90
2022-11-03T00:12:09.601Z,0.98
2022-11-03T00:14:39.422Z,0.90
2022-11-03T00:17:07.994Z,1.33
2022-11-03T00:19:36.374Z,1.13
2022-11-03T00:22:04.788Z,0.95
2022-11-03T00:24:33.117Z,0.90
2022-11-03T00:27:01.558Z,0.60
2022-11-03T00:29:30.144Z,0.68
2022-11-03T00:31:59.929Z,0.68
2022-11-03T00:34:31.202Z,0.60
2022-11-03T00:36:59.612Z,0.75
2022-11-03T00:39:27.982Z,1.05
2022-11-03T00:41:58.494Z,1.27
2022-11-03T00:44:27.448Z,0.85
2022-11-03T00:46:55.855Z,1.00
2022-11-03T00:49:26.192Z,1.10
2022-11-03T00:51:54.435Z,0.90
2022-11-03T00:54:22.952Z,0.90
2022-11-03T00:56:54.442Z,1.00
2022-11-03T00:59:22.728Z,0.70
2022-11-03T01:01:51.379Z,0.95
2022-11-03T01:04:36.969Z,1.20
2022-11-03T01:07:07.747Z,1.38
2022-11-03T01:09:38.202Z,1.17
2022-11-03T01:12:08.881Z,0.70
2022-11-03T01:14:39.940Z,0.82
2022-11-03T01:17:09.270Z,1.00
2022-11-03T01:19:37.852Z,1.60
2022-11-03T01:22:10.658Z,0.70
2022-11-03T01:24:39.995Z,1.13
2022-11-03T01:27:08.349Z,0.70
2022-11-03T01:29:36.525Z,0.80
2022-11-03T01:32:04.657Z,0.85
2022-11-03T01:34:33.100Z,1.20
2022-11-03T01:37:01.301Z,1.13
2022-11-03T01:39:31.042Z,0.93
2022-11-03T01:41:59.321Z,1.08
2022-11-03T01:44:38.432Z,0.70
2022-11-03T01:47:15.366Z,0.63
2022-11-03T01:49:48.001Z,0.80
2022-11-03T01:52:21.890Z,0.70
2022-11-03T01:54:59.479Z,0.90
2022-11-03T01:57:32.988Z,0.60
2022-11-03T02:00:04.098Z,0.95
2022-11-03T02:02:41.447Z,1.30
2022-11-03T02:05:13.116Z,0.77
2022-11-03T02:07:47.981Z,0.68
2022-11-03T02:10:18.724Z,0.98
2022-11-03T02:12:47.252Z,1.42
2022-11-03T02:15:18.774Z,1.30
2022-11-03T02:17:49.023Z,0.73
2022-11-03T02:20:20.096Z,0.98
2022-11-03T02:23:18.380Z,0.80
2022-11-03T02:25:49.716Z,0.75
2022-11-03T02:28:19.888Z,0.82
2022-11-03T02:31:10.467Z,0.75
2022-11-03T02:33:49.504Z,0.75
2022-11-03T02:36:23.940Z,0.88
2022-11-03T02:38:58.472Z,0.77
2022-11-03T02:41:29.819Z,1.05
2022-11-03T02:43:59.320Z,0.88
2022-11-03T02:46:29.073Z,0.95
2022-11-03T02:48:57.690Z,0.90
2022-11-03T02:51:25.970Z,0.52
2022-11-03T02:54:03.317Z,0.60
2022-11-03T02:56:38.708Z,0.80
2022-11-03T02:59:11.115Z,1.33
2022-11-03T03:01:47.926Z,1.10
2022-11-03T03:04:20.986Z,1.10
2022-11-03T03:06:53.847Z,0.77
2022-11-03T03:09:25.960Z,0.98
2022-11-03T03:12:01.160Z,0.77
2022-11-03T03:14:34.137Z,1.00
2022-11-03T03:17:06.304Z,0.80
2022-11-03T03:19:48.066Z,0.65
2022-11-03T03:22:23.845Z,1.60
2022-11-03T03:24:57.120Z,0.90
2022-11-03T03:27:29.682Z,0.57
2022-11-03T03:30:01.751Z,0.80
2022-11-03T03:32:35.513Z,0.80
2022-11-03T03:35:07.582Z,0.98
2022-11-03T03:37:38.347Z,0.88
2022-11-03T03:40:11.564Z,0.70
2022-11-03T03:42:44.640Z,1.17
2022-11-03T03:45:14.493Z,0.73
2022-11-03T03:47:42.813Z,0.82
2022-11-03T03:50:13.723Z,0.90
2022-11-03T03:52:41.846Z,0.65
2022-11-03T03:55:18.022Z,0.98
2022-11-03T03:57:47.508Z,0.70
2022-11-03T04:00:16.290Z,0.75
2022-11-03T04:02:44.384Z,0.73
2022-11-03T04:05:12.576Z,0.77
2022-11-03T04:07:49.579Z,0.75
2022-11-03T04:10:19.888Z,0.90
2022-11-03T04:13:04.534Z,0.43
2022-11-03T04:15:50.832Z,0.60
2022-11-03T04:18:37.287Z,0.82
2022-11-03T04:21:28.741Z,0.98
2022-11-03T04:23:56.811Z,1.23
2022-11-03T04:26:25.016Z,0.90
2022-11-03T04:28:55.390Z,0.65
2022-11-03T04:31:23.918Z,0.70
2022-11-03T04:33:52.484Z,0.70
2022-11-03T04:36:22.139Z,0.63
2022-11-03T04:38:51.277Z,0.60
2022-11-03T04:41:21.771Z,0.95
2022-11-03T04:43:51.559Z,1.45
2022-11-03T04:46:26.366Z,0.52
2022-11-03T04:49:03.029Z,0.50
2022-11-03T04:51:34.191Z,0.93
2022-11-03T04:54:04.547Z,0.70
2022-11-03T04:56:35.567Z,0.85
2022-11-03T04:59:12.115Z,0.95
2022-11-03T05:01:42.246Z,0.90
2022-11-03T05:04:14.542Z,1.00
2022-11-03T05:06:43.373Z,0.95
2022-11-03T05:09:15.735Z,0.80
2022-11-03T05:11:50.813Z,0.75
2022-11-03T05:14:35.684Z,0.90
2022-11-03T05:17:16.753Z,1.10
2022-11-03T05:19:45.336Z,0.68
2022-11-03T05:22:20.963Z,1.15
2022-11-03T05:24:49.307Z,0.70
2022-11-03T05:27:21.558Z,0.70
2022-11-03T05:29:55.129Z,0.60
2022-11-03T05:32:31.095Z,0.98
2022-11-03T05:34:59.524Z,1.65
2022-11-03T05:37:34.940Z,2.80
2022-11-03T05:40:16.693Z,1.83
2022-11-03T05:42:47.199Z,1.20
2022-11-03T05:45:23.933Z,1.23
2022-11-03T05:47:56.455Z,0.95
2022-11-03T05:50:27.025Z,1.00
2022-11-03T05:53:11.228Z,0.90
2022-11-03T05:55:39.530Z,0.65
2022-11-03T05:58:18.293Z,0.95
2022-11-03T06:00:48.780Z,1.42
2022-11-03T06:03:24.190Z,0.90
2022-11-03T06:05:52.737Z,1.98
2022-11-03T06:10:55.035Z,0.73
2022-11-03T06:13:28.004Z,1.08
2022-11-03T06:16:00.217Z,1.40
2022-11-03T06:18:34.956Z,1.52
2022-11-03T06:21:08.257Z,1.50
2022-11-03T06:23:37.703Z,1.35
2022-11-03T06:26:24.756Z,1.80
2022-11-03T06:28:53.188Z,6.88
2022-11-03T06:31:23.734Z,2.97
2022-11-03T06:33:53.991Z,1.55
2022-11-03T06:36:23.679Z,1.88
2022-11-03T06:38:55.663Z,3.75
2022-11-03T06:41:27.093Z,2.40
2022-11-03T06:43:59.500Z,2.92
2022-11-03T06:46:28.439Z,2.80
2022-11-03T06:49:01.457Z,1.23
2022-11-03T06:51:31.011Z,2.08
2022-11-03T06:54:01.395Z,0.77
2022-11-03T06:56:32.568Z,0.98
2022-11-03T06:59:02.219Z,1.23
2022-11-03T07:01:33.563Z,4.03
2022-11-03T07:05:03.265Z,1.70
2022-11-03T07:07:32.858Z,1.60
2022-11-03T07:10:01.057Z,3.93
2022-11-03T07:12:29.271Z,2.20
2022-11-03T07:14:59.010Z,3.40
2022-11-03T07:17:27.315Z,4.63
2022-11-03T07:19:55.934Z,2.70
2022-11-03T07:22:26.597Z,1.53
2022-11-03T07:25:00.624Z,1.90
2022-11-03T07:27:31.815Z,1.07
2022-11-03T07:30:03.952Z,0.70
2022-11-03T07:32:35.242Z,0.80
2022-11-03T07:35:10.950Z,2.30
2022-11-03T07:37:39.139Z,4.03
2022-11-03T07:40:14.414Z,1.67
2022-11-03T07:42:42.732Z,4.80
2022-11-03T07:45:34.638Z,2.10
2022-11-03T07:48:12.489Z,5.50
2022-11-03T07:50:40.766Z,2.50
2022-11-03T07:53:14.640Z,2.97
2022-11-03T07:55:46.372Z,1.10
2022-11-03T07:58:23.785Z,0.70
2022-11-03T08:00:58.554Z,0.50
2022-11-03T08:03:39.146Z,1.23
2022-11-03T08:06:09.915Z,0.70
2022-11-03T08:08:38.986Z,0.73
2022-11-03T08:11:08.685Z,0.50
2022-11-03T08:13:36.950Z,0.70
2022-11-03T08:16:05.606Z,0.40
2022-11-03T08:18:33.826Z,0.47
2022-11-03T08:21:02.022Z,0.53
2022-11-03T08:23:30.374Z,0.70
2022-11-03T08:25:58.784Z,0.80
2022-11-03T08:28:28.468Z,0.67
2022-11-03T08:31:02.223Z,1.03
2022-11-03T08:33:30.567Z,0.90
2022-11-03T08:35:58.744Z,0.83
2022-11-03T08:38:27.002Z,0.60
2022-11-03T08:40:55.628Z,1.00
2022-11-03T08:43:23.993Z,0.73
2022-11-03T08:45:54.547Z,0.30
2022-11-03T08:48:23.809Z,0.70
2022-11-03T08:50:54.175Z,0.77
2022-11-03T08:53:22.606Z,1.00
2022-11-03T08:55:50.923Z,0.57
2022-11-03T08:58:19.301Z,1.10
2022-11-03T09:00:48.075Z,0.70
2022-11-03T09:03:17.724Z,0.97
2022-11-03T09:05:46.341Z,0.50
2022-11-03T09:11:02.816Z,1.80
2022-11-03T09:13:31.083Z,0.70
2022-11-03T09:15:59.269Z,0.70
2022-11-03T09:18:28.882Z,0.83
2022-11-03T09:20:57.092Z,2.40
2022-11-03T09:23:25.351Z,1.97
2022-11-03T09:25:53.579Z,4.50
2022-11-03T09:28:21.910Z,4.27
2022-11-03T09:30:50.574Z,1.10
2022-11-03T09:33:18.760Z,0.87
2022-11-03T09:35:48.569Z,0.80
2022-11-03T09:38:16.760Z,0.50
2022-11-03T09:40:45.156Z,0.90
2022-11-03T09:43:13.613Z,0.80
2022-11-03T09:45:41.774Z,0.97
2022-11-03T09:48:11.903Z,0.60
2022-11-03T09:50:40.944Z,0.57
2022-11-03T09:53:13.329Z,0.60
2022-11-03T09:55:41.658Z,0.60
2022-11-03T09:58:14.895Z,0.90
2022-11-03T10:00:43.419Z,0.60
2022-11-03T10:03:12.398Z,0.50
2022-11-03T10:05:41.865Z,0.60
2022-11-03T10:08:28.163Z,0.50
2022-11-03T10:10:57.443Z,1.03
2022-11-03T10:13:30.122Z,0.50
2022-11-03T10:15:58.829Z,0.60
2022-11-03T10:18:28.970Z,0.63
2022-11-03T10:20:57.709Z,0.73
2022-11-03T10:23:27.232Z,2.40
2022-11-03T10:26:08.975Z,0.57
2022-11-03T10:28:37.358Z,0.70
2022-11-03T10:31:11.821Z,0.87
2022-11-03T10:33:42.495Z,0.73
2022-11-03T10:36:25.262Z,0.50
2022-11-03T10:38:55.699Z,1.23
2022-11-03T10:41:25.410Z,0.57
2022-11-03T10:44:05.745Z,0.70
2022-11-03T10:46:50.240Z,1.10
2022-11-03T10:49:21.118Z,0.70
2022-11-03T10:51:52.242Z,0.50
2022-11-03T10:54:23.955Z,0.70
2022-11-03T10:56:52.839Z,0.70
2022-11-03T10:59:23.476Z,0.90
2022-11-03T11:01:52.229Z,0.57
2022-11-03T11:04:21.978Z,0.80
2022-11-03T11:06:50.232Z,0.67
2022-11-03T11:09:25.603Z,0.70
2022-11-03T11:12:02.380Z,0.70
2022-11-03T11:14:39.550Z,0.73
2022-11-03T11:17:41.258Z,0.77
2022-11-03T11:20:34.345Z,1.03
2022-11-03T11:23:49.023Z,0.53
2022-11-03T11:26:32.197Z,0.50
2022-11-03T11:29:43.973Z,0.60
2022-11-03T11:32:51.863Z,0.93
2022-11-03T11:36:07.792Z,0.90
2022-11-03T11:39:09.345Z,0.57
2022-11-03T11:42:11.756Z,0.50
2022-11-03T11:44:54.949Z,0.47
2022-11-03T11:47:44.726Z,0.70
2022-11-03T11:50:32.978Z,1.00
2022-11-03T11:53:11.853Z,0.70
2022-11-03T11:55:43.881Z,0.60
2022-11-03T11:58:24.738Z,0.73
2022-11-03T12:00:58.820Z,0.90
2022-11-03T12:03:36.973Z,0.80
2022-11-03T12:06:05.566Z,0.80
2022-11-03T12:08:34.234Z,0.70
2022-11-03T12:11:04.289Z,0.40
2022-11-03T12:13:42.717Z,0.67
2022-11-03T12:16:11.432Z,0.70
2022-11-03T12:18:46.088Z,0.60
2022-11-03T12:21:48.856Z,0.67
2022-11-03T12:24:27.951Z,0.60
2022-11-03T12:27:03.687Z,0.60
2022-11-03T12:29:34.423Z,0.60
2022-11-03T12:32:03.628Z,0.87
2022-11-03T12:34:33.844Z,0.60
2022-11-03T12:37:03.394Z,0.40
2022-11-03T12:39:32.944Z,0.50
2022-11-03T12:42:26.607Z,0.60
2022-11-03T12:45:00.188Z,0.87
2022-11-03T12:47:29.981Z,1.03
2022-11-03T12:50:03.352Z,0.93
2022-11-03T12:52:32.746Z,0.97
2022-11-03T12:55:01.207Z,0.53
2022-11-03T12:57:29.853Z,0.77
2022-11-03T12:59:59.631Z,0.70
2022-11-03T13:02:50.629Z,0.93
2022-11-03T13:06:00.684Z,0.97
2022-11-03T13:09:02.442Z,1.37
2022-11-03T13:12:05.794Z,0.90
2022-11-03T13:14:46.299Z,1.50
2022-11-03T13:20:45.935Z,0.70
2022-11-03T13:23:52.843Z,1.50
2022-11-03T13:26:34.731Z,0.90
2022-11-03T13:29:19.864Z,0.93
2022-11-03T13:40:07.759Z,0.60
2022-11-03T13:43:00.245Z,0.60
2022-11-03T14:06:02.441Z,0.57
2022-11-03T14:09:04.299Z,1.07
2022-11-03T14:12:21.363Z,1.07
2022-11-03T14:15:18.414Z,1.40
2022-11-03T14:17:56.564Z,1.33
2022-11-03T14:24:04.093Z,1.57
2022-11-03T14:34:38.019Z,1.10
2022-11-03T14:37:09.035Z,1.20
2022-11-03T14:39:55.948Z,1.40
2022-11-03T14:46:05.361Z,1.37
2022-11-03T14:48:40.462Z,1.90
2022-11-03T14:51:12.555Z,1.57
2022-11-03T14:56:46.397Z,2.37
2022-11-03T14:59:16.215Z,1.70
2022-11-03T15:02:16.226Z,1.60
2022-11-03T15:08:56.685Z,1.53
2022-11-03T15:11:57.262Z,2.20
2022-11-03T15:14:45.396Z,1.80
2022-11-03T15:17:15.532Z,1.63
2022-11-03T15:19:47.977Z,1.97
2022-11-03T15:25:46.061Z,1.70
2022-11-03T15:28:18.946Z,1.83
2022-11-03T15:30:48.597Z,1.53
2022-11-03T15:33:19.583Z,1.57
2022-11-03T15:35:48.705Z,1.83
2022-11-03T15:38:17.464Z,2.17
2022-11-03T15:40:46.269Z,2.27
2022-11-03T15:43:14.871Z,1.53
2022-11-03T15:45:43.130Z,2.00
2022-11-03T15:48:11.784Z,2.03
2022-11-03T15:50:42.274Z,1.77
2022-11-03T15:53:10.497Z,1.90
2022-11-03T15:55:39.060Z,3.10
2022-11-03T15:58:07.745Z,4.20
2022-11-03T16:00:36.482Z,5.10
2022-11-03T16:03:05.545Z,3.33
2022-11-03T16:07:06.789Z,2.70
2022-11-03T16:10:14.023Z,2.10
2022-11-03T16:13:02.659Z,1.50
2022-11-03T16:15:40.716Z,1.80
2022-11-03T16:18:16.096Z,2.77
2022-11-03T16:20:55.173Z,1.90
2022-11-03T16:23:28.768Z,1.40
2022-11-03T16:25:57.768Z,1.80
2022-11-03T16:28:26.704Z,1.77
2022-11-03T16:30:55.843Z,3.73
2022-11-03T16:33:25.063Z,2.20
2022-11-03T16:36:02.863Z,3.40
2022-11-03T16:38:35.870Z,2.77
2022-11-03T16:41:04.432Z,12.70
2022-11-03T16:43:33.459Z,2.60
2022-11-03T16:46:03.469Z,3.47
2022-11-03T16:48:32.337Z,5.00
2022-11-03T16:51:00.580Z,7.03
2022-11-03T16:53:29.115Z,4.33
2022-11-03T16:55:58.909Z,4.43
2022-11-03T16:58:27.184Z,2.37
2022-11-03T17:00:55.762Z,2.17
2022-11-03T17:03:24.142Z,2.67
2022-11-03T17:05:52.496Z,2.47
2022-11-03T17:11:10.711Z,2.60
2022-11-03T17:13:39.186Z,2.20
2022-11-03T17:16:07.688Z,2.13
2022-11-03T17:18:36.233Z,3.03
2022-11-03T17:21:04.958Z,2.60
2022-11-03T17:23:33.324Z,2.83
2022-11-03T17:26:03.166Z,2.97
2022-11-03T17:28:33.044Z,3.10
2022-11-03T17:31:01.282Z,2.83
2022-11-03T17:33:29.587Z,3.43
2022-11-03T17:35:58.425Z,2.60
2022-11-03T17:38:27.460Z,2.30
2022-11-03T17:40:55.731Z,2.20
2022-11-03T17:43:27.053Z,2.43
2022-11-03T17:45:57.134Z,3.00
2022-11-03T17:48:25.649Z,2.47
2022-11-03T17:50:56.834Z,2.47
2022-11-03T17:53:26.947Z,3.30
2022-11-03T17:56:27.965Z,3.07
2022-11-03T17:58:47.146Z,3.00
2022-11-03T18:01:21.899Z,3.10
2022-11-03T18:03:50.413Z,3.27
2022-11-03T18:06:20.403Z,2.60
2022-11-03T18:08:49.548Z,3.30
2022-11-03T18:11:42.528Z,2.90
2022-11-03T18:14:10.940Z,5.00
2022-11-03T18:16:41.454Z,4.93
2022-11-03T18:19:13.223Z,5.47
2022-11-03T18:21:42.052Z,6.73
2022-11-03T18:24:13.452Z,4.13
2022-11-03T18:26:42.125Z,3.43
2022-11-03T18:29:10.352Z,3.60
2022-11-03T18:31:42.580Z,3.37
2022-11-03T18:34:15.593Z,2.53
2022-11-03T18:36:44.487Z,2.80
2022-11-03T18:39:18.014Z,3.03
2022-11-03T18:41:46.225Z,5.20
2022-11-03T18:44:20.574Z,3.23
2022-11-03T18:46:52.575Z,3.20
2022-11-03T18:49:21.471Z,3.40
2022-11-03T18:51:51.800Z,3.37
2022-11-03T18:54:22.466Z,3.27
2022-11-03T18:56:53.009Z,3.27
2022-11-03T18:59:24.302Z,3.87
2022-11-03T19:01:54.106Z,3.70
2022-11-03T19:04:22.675Z,3.50
2022-11-03T19:06:52.898Z,4.13
2022-11-03T19:09:24.751Z,3.97
2022-11-03T19:11:58.313Z,3.43
2022-11-03T19:14:30.183Z,4.40
2022-11-03T19:19:48.570Z,4.10
2022-11-03T19:22:18.907Z,4.27
2022-11-03T19:24:47.400Z,3.77
2022-11-03T19:27:18.178Z,3.90
2022-11-03T19:29:48.431Z,4.20
2022-11-03T19:32:21.983Z,4.27
2022-11-03T19:34:54.759Z,5.17
2022-11-03T19:37:23.192Z,4.20
2022-11-03T19:39:51.442Z,4.67
2022-11-03T19:42:33.145Z,3.63
2022-11-03T19:45:02.861Z,4.00
2022-11-03T19:47:35.743Z,3.63
2022-11-03T19:50:06.593Z,4.43
2022-11-03T19:52:35.611Z,3.57
2022-11-03T19:55:06.503Z,3.13
2022-11-03T19:57:34.774Z,4.10
2022-11-03T20:00:03.595Z,4.47
2022-11-03T20:02:39.580Z,4.73
2022-11-03T20:05:08.352Z,3.90
2022-11-03T20:07:36.547Z,4.67
2022-11-03T20:10:05.517Z,7.10
2022-11-03T20:12:33.785Z,6.10
2022-11-03T20:15:01.980Z,5.33
2022-11-03T20:17:30.264Z,4.40
2022-11-03T20:19:59.775Z,4.23
2022-11-03T20:22:30.392Z,3.50
2022-11-03T20:25:03.219Z,3.23
2022-11-03T20:27:32.962Z,4.10
2022-11-03T20:30:01.187Z,3.03
2022-11-03T20:32:29.505Z,2.73
2022-11-03T20:34:59.082Z,3.93
2022-11-03T20:37:27.486Z,3.10
2022-11-03T20:39:55.813Z,3.33
2022-11-03T20:42:26.603Z,2.67
2022-11-03T20:44:54.997Z,2.87
2022-11-03T20:47:23.306Z,3.20
2022-11-03T20:49:51.862Z,3.33
2022-11-03T20:52:21.514Z,2.87
2022-11-03T20:54:51.089Z,3.47
2022-11-03T20:57:19.375Z,3.27
2022-11-03T20:59:47.788Z,3.37
2022-11-03T21:02:16.156Z,3.77
2022-11-03T21:04:44.416Z,3.17
2022-11-03T21:07:13.646Z,3.00
2022-11-03T21:09:43.326Z,4.00
2022-11-03T21:12:14.543Z,4.30
2022-11-03T21:15:00.137Z,5.63
2022-11-03T21:17:45.646Z,5.10
2022-11-03T21:20:14.038Z,4.30
2022-11-03T21:22:52.451Z,5.20
2022-11-03T21:25:25.146Z,4.90
2022-11-03T21:27:54.770Z,4.27
2022-11-03T21:30:24.292Z,4.50
2022-11-03T21:32:52.662Z,4.00
2022-11-03T21:35:22.452Z,4.30
2022-11-03T21:37:51.013Z,4.90
2022-11-03T21:40:19.434Z,3.93
2022-11-03T21:43:07.168Z,3.53
2022-11-03T21:45:36.096Z,3.80
2022-11-03T21:48:23.575Z,4.03
2022-11-03T21:50:52.153Z,3.33
2022-11-03T21:53:20.778Z,3.37
2022-11-03T21:55:49.631Z,2.97
2022-11-03T21:58:22.275Z,2.00
2022-11-03T22:00:50.762Z,1.47
2022-11-03T22:03:19.376Z,1.70
2022-11-03T22:05:47.691Z,1.70
2022-11-03T22:08:16.273Z,1.77
2022-11-03T22:10:44.681Z,2.20
2022-11-03T22:13:13.092Z,1.77
2022-11-03T22:16:00.712Z,1.80
2022-11-03T22:18:29.171Z,1.77
2022-11-03T22:21:16.438Z,1.83
2022-11-03T22:24:03.954Z,1.93
2022-11-03T22:26:49.545Z,1.50
2022-11-03T22:29:35.678Z,1.97
2022-11-03T22:32:06.383Z,1.23
2022-11-03T22:34:52.001Z,1.47
2022-11-03T22:37:20.482Z,2.33
2022-11-03T22:40:17.745Z,1.50
2022-11-03T22:43:06.187Z,1.37
2022-11-03T22:45:54.505Z,2.10
2022-11-03T22:48:25.823Z,2.03
2022-11-03T22:50:59.558Z,1.73
2022-11-03T22:53:45.555Z,2.30
2022-11-03T22:56:14.436Z,1.33
2022-11-03T22:58:43.099Z,1.37
2022-11-03T23:01:13.460Z,1.57
2022-11-03T23:03:44.636Z,2.10
2022-11-03T23:06:15.012Z,2.00
2022-11-03T23:08:46.846Z,1.73
2022-11-03T23:11:17.516Z,2.00
2022-11-03T23:13:47.401Z,1.40
2022-11-03T23:16:17.875Z,1.63
2022-11-03T23:19:06.350Z,1.83
2022-11-03T23:21:35.892Z,1.90
2022-11-03T23:24:22.335Z,1.87
2022-11-03T23:26:51.134Z,2.30
2022-11-03T23:29:19.336Z,2.27
2022-11-03T23:31:47.825Z,2.00
2022-11-03T23:34:17.977Z,2.70
2022-11-03T23:36:46.445Z,2.87
2022-11-03T23:39:16.119Z,2.70
2022-11-03T23:41:45.125Z,2.70
2022-11-03T23:44:14.587Z,2.33
2022-11-03T23:47:00.473Z,3.03
2022-11-03T23:49:30.186Z,2.83
2022-11-03T23:51:58.812Z,3.03
2022-11-03T23:54:27.363Z,2.13
2022-11-03T23:57:13.007Z,1.97
2022-11-03T23:59:41.486Z,2.30
